createdAt,value
2016-10-11T00:00:23.282Z,-84
2016-10-11T00:01:23.458Z,-84
2016-10-11T00:02:23.390Z,-84
2016-10-11T00:03:23.409Z,-84
2016-10-11T00:04:23.435Z,-84
2016-10-11T00:05:23.490Z,-83
2016-10-11T00:06:23.496Z,-84
2016-10-11T00:07:23.350Z,-84
2016-10-11T00:08:23.313Z,-83
2016-10-11T00:09:23.286Z,-84
2016-10-11T00:10:23.373Z,-84
2016-10-11T00:11:23.303Z,-84
2016-10-11T00:12:23.377Z,-83
2016-10-11T00:13:23.365Z,-84
2016-10-11T00:14:23.541Z,-84
2016-10-11T00:15:23.214Z,-84
2016-10-11T00:16:23.519Z,-84
2016-10-11T00:17:23.328Z,-84
2016-10-11T00:18:23.356Z,-83
2016-10-11T00:19:23.410Z,-84
2016-10-11T00:20:23.419Z,-84
2016-10-11T00:21:23.308Z,-84
2016-10-11T00:22:23.490Z,-84
2016-10-11T00:23:23.360Z,-84
2016-10-11T00:24:23.442Z,-83
2016-10-11T00:25:23.351Z,-84
2016-10-11T00:26:23.386Z,-84
2016-10-11T00:27:23.528Z,-84
2016-10-11T00:28:23.418Z,-83
2016-10-11T00:29:23.368Z,-84
2016-10-11T00:30:23.573Z,-84
2016-10-11T00:31:23.327Z,-83
2016-10-11T00:32:23.407Z,-84
2016-10-11T00:33:23.441Z,-84
2016-10-11T00:34:23.484Z,-84
2016-10-11T00:35:23.490Z,-84
2016-10-11T00:36:23.542Z,-83
2016-10-11T00:37:23.373Z,-84
2016-10-11T00:38:23.410Z,-83
2016-10-11T00:39:23.504Z,-83
2016-10-11T00:40:23.402Z,-84
2016-10-11T00:41:23.565Z,-83
2016-10-11T00:42:23.538Z,-83
2016-10-11T00:43:23.419Z,-83
2016-10-11T00:44:23.453Z,-83
2016-10-11T00:45:23.498Z,-83
2016-10-11T00:46:23.557Z,-84
2016-10-11T00:47:23.453Z,-84
2016-10-11T00:48:23.499Z,-84
2016-10-11T00:49:23.567Z,-84
2016-10-11T00:50:23.426Z,-83
2016-10-11T00:51:23.702Z,-84
2016-10-11T00:52:23.543Z,-84
2016-10-11T00:53:23.462Z,-83
2016-10-11T00:54:23.495Z,-84
2016-10-11T00:55:23.467Z,-84
2016-10-11T00:56:23.506Z,-84
2016-10-11T00:57:23.772Z,-84
2016-10-11T00:58:23.400Z,-84
2016-10-11T00:59:23.558Z,-83
2016-10-11T01:00:23.550Z,-84
2016-10-11T01:01:23.582Z,-84
2016-10-11T01:02:23.707Z,-83
2016-10-11T01:03:23.541Z,-84
2016-10-11T01:04:23.654Z,-83
2016-10-11T01:05:23.653Z,-83
2016-10-11T01:06:23.559Z,-83
2016-10-11T01:07:23.542Z,-83
2016-10-11T01:08:23.533Z,-83
2016-10-11T01:09:23.580Z,-83
2016-10-11T01:10:23.507Z,-84
2016-10-11T01:11:23.516Z,-83
2016-10-11T01:12:23.509Z,-84
2016-10-11T01:13:23.642Z,-83
2016-10-11T01:14:23.607Z,-83
2016-10-11T01:15:23.570Z,-83
2016-10-11T01:16:23.578Z,-83
2016-10-11T01:17:23.425Z,-83
2016-10-11T01:18:23.831Z,-83
2016-10-11T01:19:23.601Z,-84
2016-10-11T01:20:23.611Z,-84
2016-10-11T01:21:23.609Z,-83
2016-10-11T01:22:23.611Z,-83
2016-10-11T01:23:23.571Z,-83
2016-10-11T01:24:23.672Z,-83
2016-10-11T01:25:23.531Z,-83
2016-10-11T01:26:23.619Z,-83
2016-10-11T01:27:23.663Z,-83
2016-10-11T01:28:23.603Z,-83
2016-10-11T01:29:23.519Z,-83
2016-10-11T01:30:23.629Z,-83
2016-10-11T01:31:23.642Z,-83
2016-10-11T01:32:23.616Z,-83
2016-10-11T01:33:23.679Z,-83
2016-10-11T01:34:23.784Z,-83
2016-10-11T01:35:23.687Z,-83
2016-10-11T01:36:23.673Z,-84
2016-10-11T01:37:23.687Z,-83
2016-10-11T01:38:23.587Z,-83
2016-10-11T01:39:23.537Z,-83
2016-10-11T01:40:23.731Z,-83
2016-10-11T01:41:23.698Z,-84
2016-10-11T01:42:23.526Z,-83
2016-10-11T01:43:23.684Z,-84
2016-10-11T01:44:23.652Z,-84
2016-10-11T01:45:23.530Z,-83
2016-10-11T01:46:23.710Z,-83
2016-10-11T01:47:23.609Z,-84
2016-10-11T01:48:23.591Z,-83
2016-10-11T01:49:23.714Z,-83
2016-10-11T01:50:23.891Z,-84
2016-10-11T01:51:23.593Z,-84
2016-10-11T01:52:23.786Z,-84
2016-10-11T01:53:23.644Z,-83
2016-10-11T01:54:23.741Z,-84
2016-10-11T01:55:23.648Z,-83
2016-10-11T01:56:23.641Z,-84
2016-10-11T01:57:23.690Z,-84
2016-10-11T01:58:23.674Z,-84
2016-10-11T01:59:23.703Z,-83
2016-10-11T02:00:23.635Z,-83
2016-10-11T02:01:23.756Z,-83
2016-10-11T02:02:23.621Z,-84
2016-10-11T02:03:23.691Z,-83
2016-10-11T02:04:23.775Z,-83
2016-10-11T02:05:23.765Z,-84
2016-10-11T02:06:23.753Z,-84
2016-10-11T02:07:23.702Z,-84
2016-10-11T02:08:23.590Z,-83
2016-10-11T02:09:23.776Z,-84
2016-10-11T02:10:23.627Z,-83
2016-10-11T02:11:23.747Z,-83
2016-10-11T02:12:23.784Z,-83
2016-10-11T02:13:23.747Z,-84
2016-10-11T02:14:23.624Z,-84
2016-10-11T02:15:23.682Z,-83
2016-10-11T02:16:23.832Z,-84
2016-10-11T02:17:23.662Z,-83
2016-10-11T02:18:23.800Z,-83
2016-10-11T02:19:23.751Z,-84
2016-10-11T02:20:23.684Z,-83
2016-10-11T02:21:23.636Z,-83
2016-10-11T02:22:23.980Z,-83
2016-10-11T02:23:23.725Z,-83
2016-10-11T02:24:23.766Z,-83
2016-10-11T02:25:23.695Z,-83
2016-10-11T02:26:23.640Z,-83
2016-10-11T02:27:23.699Z,-83
2016-10-11T02:28:23.775Z,-84
2016-10-11T02:29:23.714Z,-83
2016-10-11T02:30:23.885Z,-83
2016-10-11T02:31:23.763Z,-83
2016-10-11T02:32:23.707Z,-83
2016-10-11T02:33:23.818Z,-83
2016-10-11T02:34:23.830Z,-83
2016-10-11T02:35:23.840Z,-83
2016-10-11T02:36:23.741Z,-83
2016-10-11T02:37:23.785Z,-84
2016-10-11T02:38:23.930Z,-83
2016-10-11T02:39:23.855Z,-83
2016-10-11T02:40:23.747Z,-83
2016-10-11T02:41:23.801Z,-83
2016-10-11T02:42:23.812Z,-83
2016-10-11T02:43:23.939Z,-83
2016-10-11T02:44:23.813Z,-83
2016-10-11T02:45:23.697Z,-84
2016-10-11T02:46:23.880Z,-83
2016-10-11T02:47:23.677Z,-83
2016-10-11T02:48:23.754Z,-83
2016-10-11T02:49:23.853Z,-83
2016-10-11T02:50:23.882Z,-83
2016-10-11T02:51:23.947Z,-83
2016-10-11T02:52:23.769Z,-83
2016-10-11T02:53:23.768Z,-83
2016-10-11T02:54:24.003Z,-83
2016-10-11T02:55:23.732Z,-83
2016-10-11T02:56:23.777Z,-83
2016-10-11T02:57:23.750Z,-83
2016-10-11T02:58:23.933Z,-84
2016-10-11T02:59:23.810Z,-83
2016-10-11T03:00:23.859Z,-83
2016-10-11T03:01:23.907Z,-84
2016-10-11T03:02:23.790Z,-83
2016-10-11T03:03:24.104Z,-83
2016-10-11T03:04:23.793Z,-83
2016-10-11T03:05:23.820Z,-83
2016-10-11T03:06:23.839Z,-83
2016-10-11T03:07:23.908Z,-83
2016-10-11T03:08:23.810Z,-83
2016-10-11T03:09:23.932Z,-83
2016-10-11T03:10:23.972Z,-83
2016-10-11T03:11:24.005Z,-83
2016-10-11T03:12:24.334Z,-83
2016-10-11T03:13:23.930Z,-84
2016-10-11T03:14:23.945Z,-83
2016-10-11T03:15:23.904Z,-84
2016-10-11T03:16:23.930Z,-83
2016-10-11T03:17:23.810Z,-83
2016-10-11T03:18:23.793Z,-83
2016-10-11T03:19:23.876Z,-83
2016-10-11T03:20:23.835Z,-83
2016-10-11T03:21:23.890Z,-83
2016-10-11T03:22:23.894Z,-83
2016-10-11T03:23:23.969Z,-83
2016-10-11T03:24:23.972Z,-84
2016-10-11T03:25:23.901Z,-84
2016-10-11T03:26:24.309Z,-84
2016-10-11T03:27:24.107Z,-83
2016-10-11T03:28:23.940Z,-84
2016-10-11T03:29:24.018Z,-83
2016-10-11T03:30:23.860Z,-84
2016-10-11T03:31:23.884Z,-84
2016-10-11T03:32:23.949Z,-84
2016-10-11T03:33:23.854Z,-84
2016-10-11T03:34:23.942Z,-84
2016-10-11T03:35:23.854Z,-83
2016-10-11T03:36:23.931Z,-83
2016-10-11T03:37:23.883Z,-83
2016-10-11T03:38:23.878Z,-84
2016-10-11T03:39:23.934Z,-84
2016-10-11T03:40:23.901Z,-84
2016-10-11T03:41:24.043Z,-83
2016-10-11T03:42:23.990Z,-84
2016-10-11T03:43:23.872Z,-84
2016-10-11T03:44:23.925Z,-84
2016-10-11T03:45:24.029Z,-83
2016-10-11T03:46:24.045Z,-83
2016-10-11T03:47:24.093Z,-84
2016-10-11T03:48:23.887Z,-84
2016-10-11T03:49:23.931Z,-84
2016-10-11T03:50:24.123Z,-84
2016-10-11T03:51:24.079Z,-84
2016-10-11T03:52:24.012Z,-84
2016-10-11T03:53:24.181Z,-84
2016-10-11T03:54:24.190Z,-84
2016-10-11T03:55:23.915Z,-84
2016-10-11T03:56:23.928Z,-84
2016-10-11T03:57:24.087Z,-84
2016-10-11T03:58:24.143Z,-84
2016-10-11T03:59:23.983Z,-84
2016-10-11T04:00:24.058Z,-84
2016-10-11T04:01:24.050Z,-84
2016-10-11T04:02:23.981Z,-84
2016-10-11T04:03:24.014Z,-84
2016-10-11T04:04:24.038Z,-84
2016-10-11T04:05:24.035Z,-84
2016-10-11T04:06:23.968Z,-83
2016-10-11T04:07:24.065Z,-83
2016-10-11T04:08:23.962Z,-83
2016-10-11T04:09:24.129Z,-83
2016-10-11T04:10:24.109Z,-84
2016-10-11T04:11:23.947Z,-83
2016-10-11T04:12:24.068Z,-83
2016-10-11T04:13:24.026Z,-83
2016-10-11T04:14:24.378Z,-84
2016-10-11T04:15:24.073Z,-83
2016-10-11T04:16:24.016Z,-83
2016-10-11T04:17:24.073Z,-83
2016-10-11T04:18:24.156Z,-83
2016-10-11T04:19:24.062Z,-84
2016-10-11T04:20:24.166Z,-83
2016-10-11T04:21:24.090Z,-83
2016-10-11T04:22:24.004Z,-84
2016-10-11T04:23:24.141Z,-83
2016-10-11T04:24:24.139Z,-83
2016-10-11T04:25:24.012Z,-83
2016-10-11T04:26:24.024Z,-83
2016-10-11T04:27:24.040Z,-83
2016-10-11T04:28:24.092Z,-83
2016-10-11T04:29:24.021Z,-84
2016-10-11T04:30:24.195Z,-83
2016-10-11T04:31:24.231Z,-83
2016-10-11T04:32:24.174Z,-84
2016-10-11T04:33:24.122Z,-83
2016-10-11T04:34:24.099Z,-83
2016-10-11T04:35:24.160Z,-83
2016-10-11T04:36:24.105Z,-83
2016-10-11T04:37:24.195Z,-83
2016-10-11T04:38:24.049Z,-83
2016-10-11T04:39:24.227Z,-83
2016-10-11T04:40:24.116Z,-83
2016-10-11T04:41:24.117Z,-83
2016-10-11T04:42:24.018Z,-84
2016-10-11T04:43:24.117Z,-83
2016-10-11T04:44:24.006Z,-84
2016-10-11T04:45:24.096Z,-83
2016-10-11T04:46:24.203Z,-83
2016-10-11T04:47:24.125Z,-83
2016-10-11T04:48:24.146Z,-83
2016-10-11T04:49:24.113Z,-84
2016-10-11T04:50:24.205Z,-84
2016-10-11T04:51:24.118Z,-83
2016-10-11T04:52:24.218Z,-84
2016-10-11T04:53:24.096Z,-83
2016-10-11T04:54:24.131Z,-83
2016-10-11T04:55:24.264Z,-83
2016-10-11T04:56:24.159Z,-83
2016-10-11T04:57:24.224Z,-84
2016-10-11T04:58:24.182Z,-84
2016-10-11T04:59:24.205Z,-83
2016-10-11T05:00:24.106Z,-83
2016-10-11T05:01:24.175Z,-84
2016-10-11T05:02:24.281Z,-83
2016-10-11T05:03:24.192Z,-83
2016-10-11T05:04:24.133Z,-83
2016-10-11T05:05:24.171Z,-83
2016-10-11T05:06:24.245Z,-83
2016-10-11T05:07:24.154Z,-84
2016-10-11T05:08:24.198Z,-83
2016-10-11T05:09:24.216Z,-83
2016-10-11T05:10:24.266Z,-83
2016-10-11T05:11:24.188Z,-84
2016-10-11T05:12:24.229Z,-84
2016-10-11T05:13:24.257Z,-84
2016-10-11T05:14:24.253Z,-84
2016-10-11T05:15:24.233Z,-83
2016-10-11T05:16:24.182Z,-84
2016-10-11T05:17:24.278Z,-84
2016-10-11T05:18:24.382Z,-83
2016-10-11T05:19:24.133Z,-83
2016-10-11T05:20:24.128Z,-84
2016-10-11T05:21:24.257Z,-83
2016-10-11T05:22:24.182Z,-84
2016-10-11T05:23:24.274Z,-84
2016-10-11T05:24:24.345Z,-84
2016-10-11T05:25:24.321Z,-83
2016-10-11T05:26:24.250Z,-83
2016-10-11T05:27:24.224Z,-84
2016-10-11T05:28:24.370Z,-84
2016-10-11T05:29:24.220Z,-83
2016-10-11T05:30:24.431Z,-83
2016-10-11T05:31:24.265Z,-84
2016-10-11T05:32:24.338Z,-84
2016-10-11T05:33:24.242Z,-84
2016-10-11T05:34:24.335Z,-84
2016-10-11T05:35:24.275Z,-83
2016-10-11T05:36:24.291Z,-84
2016-10-11T05:37:24.274Z,-84
2016-10-11T05:38:24.299Z,-84
2016-10-11T05:39:24.294Z,-84
2016-10-11T05:40:24.213Z,-83
2016-10-11T05:41:24.285Z,-83
2016-10-11T05:42:24.238Z,-83
2016-10-11T05:43:24.202Z,-84
2016-10-11T05:44:24.197Z,-83
2016-10-11T05:45:24.326Z,-84
2016-10-11T05:46:24.241Z,-84
2016-10-11T05:47:24.433Z,-83
2016-10-11T05:48:24.343Z,-84
2016-10-11T05:49:24.380Z,-83
2016-10-11T05:50:24.560Z,-83
2016-10-11T05:51:24.288Z,-83
2016-10-11T05:52:24.216Z,-83
2016-10-11T05:53:24.276Z,-83
2016-10-11T05:54:24.362Z,-83
2016-10-11T05:55:24.339Z,-83
2016-10-11T05:56:24.650Z,-83
2016-10-11T05:57:24.230Z,-83
2016-10-11T05:58:24.245Z,-83
2016-10-11T05:59:24.377Z,-83
2016-10-11T06:00:24.320Z,-83
2016-10-11T06:01:24.444Z,-84
2016-10-11T06:02:24.458Z,-83
2016-10-11T06:03:24.516Z,-83
2016-10-11T06:04:24.258Z,-86
2016-10-11T06:05:24.366Z,-85
2016-10-11T06:06:24.481Z,-86
2016-10-11T06:07:24.304Z,-85
2016-10-11T06:08:24.371Z,-85
2016-10-11T06:09:24.347Z,-86
2016-10-11T06:10:24.214Z,-86
2016-10-11T06:11:24.328Z,-85
2016-10-11T06:12:24.438Z,-85
2016-10-11T06:13:24.338Z,-86
2016-10-11T06:14:24.393Z,-85
2016-10-11T06:15:24.298Z,-85
2016-10-11T06:16:24.920Z,-86
2016-10-11T06:17:24.261Z,-86
2016-10-11T06:18:24.366Z,-86
2016-10-11T06:19:24.422Z,-86
2016-10-11T06:20:24.390Z,-87
2016-10-11T06:21:24.352Z,-86
2016-10-11T06:22:24.511Z,-86
2016-10-11T06:23:24.507Z,-85
2016-10-11T06:24:24.387Z,-86
2016-10-11T06:25:24.276Z,-86
2016-10-11T06:26:24.407Z,-86
2016-10-11T06:27:24.324Z,-86
2016-10-11T06:28:24.492Z,-85
2016-10-11T06:29:24.369Z,-86
2016-10-11T06:30:24.383Z,-86
2016-10-11T06:31:24.395Z,-86
2016-10-11T06:32:24.294Z,-86
2016-10-11T06:33:24.414Z,-86
2016-10-11T06:34:24.279Z,-85
2016-10-11T06:35:24.406Z,-85
2016-10-11T06:36:24.477Z,-86
2016-10-11T06:37:24.310Z,-86
2016-10-11T06:38:24.804Z,-86
2016-10-11T06:39:24.482Z,-85
2016-10-11T06:40:24.669Z,-86
2016-10-11T06:41:24.433Z,-85
2016-10-11T06:42:24.471Z,-86
2016-10-11T06:43:24.490Z,-86
2016-10-11T06:44:24.650Z,-87
2016-10-11T06:45:24.561Z,-85
2016-10-11T06:46:24.485Z,-86
2016-10-11T06:47:24.456Z,-86
2016-10-11T06:48:24.492Z,-86
2016-10-11T06:49:24.506Z,-86
2016-10-11T06:50:24.541Z,-85
2016-10-11T06:51:24.382Z,-85
2016-10-11T06:52:24.475Z,-86
2016-10-11T06:53:24.498Z,-86
2016-10-11T06:54:24.564Z,-86
2016-10-11T06:55:24.514Z,-86
2016-10-11T06:56:24.506Z,-86
2016-10-11T06:57:24.603Z,-86
2016-10-11T06:58:24.533Z,-86
2016-10-11T06:59:24.510Z,-86
2016-10-11T07:00:24.609Z,-85
2016-10-11T07:01:24.603Z,-85
2016-10-11T07:02:24.558Z,-86
2016-10-11T07:03:24.513Z,-86
2016-10-11T07:04:24.471Z,-85
2016-10-11T07:05:24.557Z,-86
2016-10-11T07:06:24.447Z,-86
2016-10-11T07:07:24.494Z,-85
2016-10-11T07:08:24.476Z,-85
2016-10-11T07:09:24.382Z,-85
2016-10-11T07:10:24.734Z,-85
2016-10-11T07:11:24.576Z,-85
2016-10-11T07:12:24.615Z,-86
2016-10-11T07:13:24.808Z,-85
2016-10-11T07:14:24.575Z,-86
2016-10-11T07:15:24.582Z,-86
2016-10-11T07:16:24.880Z,-86
2016-10-11T07:17:24.587Z,-86
2016-10-11T07:18:24.569Z,-86
2016-10-11T07:19:24.524Z,-86
2016-10-11T07:20:24.523Z,-86
2016-10-11T07:21:24.799Z,-86
2016-10-11T07:22:24.535Z,-85
2016-10-11T07:23:24.660Z,-86
2016-10-11T07:24:24.614Z,-86
2016-10-11T07:25:24.593Z,-86
2016-10-11T07:26:24.725Z,-85
2016-10-11T07:27:24.545Z,-86
2016-10-11T07:28:24.622Z,-86
2016-10-11T07:29:24.574Z,-86
2016-10-11T07:30:24.640Z,-86
2016-10-11T07:31:24.553Z,-87
2016-10-11T07:32:24.722Z,-86
2016-10-11T07:33:24.774Z,-86
2016-10-11T07:34:24.539Z,-85
2016-10-11T07:35:24.715Z,-87
2016-10-11T07:36:24.575Z,-86
2016-10-11T07:37:24.578Z,-86
2016-10-11T07:38:24.503Z,-86
2016-10-11T07:39:25.659Z,-85
2016-10-11T07:40:24.600Z,-86
2016-10-11T07:41:24.645Z,-86
2016-10-11T07:42:24.705Z,-86
2016-10-11T07:43:24.732Z,-86
2016-10-11T07:44:24.570Z,-86
2016-10-11T07:45:24.654Z,-86
2016-10-11T07:46:24.715Z,-86
2016-10-11T07:47:24.678Z,-85
2016-10-11T07:48:24.700Z,-85
2016-10-11T07:49:24.628Z,-85
2016-10-11T07:50:25.313Z,-85
2016-10-11T07:51:24.791Z,-85
2016-10-11T07:52:24.655Z,-86
2016-10-11T07:53:24.647Z,-86
2016-10-11T07:54:24.567Z,-85
2016-10-11T07:55:24.806Z,-86
2016-10-11T07:56:24.608Z,-85
2016-10-11T07:57:24.712Z,-85
2016-10-11T07:58:24.910Z,-85
2016-10-11T07:59:24.716Z,-85
2016-10-11T08:00:24.697Z,-85
2016-10-11T08:01:24.628Z,-85
2016-10-11T08:02:24.696Z,-85
2016-10-11T08:03:24.775Z,-85
2016-10-11T08:04:24.863Z,-86
2016-10-11T08:05:24.785Z,-85
2016-10-11T08:06:24.665Z,-84
2016-10-11T08:07:24.749Z,-85
2016-10-11T08:08:24.670Z,-85
2016-10-11T08:09:24.699Z,-84
2016-10-11T08:10:24.689Z,-85
2016-10-11T08:11:24.673Z,-85
2016-10-11T08:12:24.696Z,-85
2016-10-11T08:13:24.783Z,-85
2016-10-11T08:14:24.913Z,-86
2016-10-11T08:15:24.709Z,-85
2016-10-11T08:16:24.725Z,-86
2016-10-11T08:17:24.745Z,-85
2016-10-11T08:18:24.709Z,-85
2016-10-11T08:19:24.770Z,-86
2016-10-11T08:20:25.150Z,-86
2016-10-11T08:21:24.740Z,-85
2016-10-11T08:22:24.757Z,-85
2016-10-11T08:23:24.763Z,-86
2016-10-11T08:24:24.733Z,-86
2016-10-11T08:25:24.833Z,-86
2016-10-11T08:26:24.698Z,-85
2016-10-11T08:27:24.766Z,-85
2016-10-11T08:28:24.769Z,-85
2016-10-11T08:29:24.884Z,-85
2016-10-11T08:30:25.025Z,-85
2016-10-11T08:31:24.769Z,-84
2016-10-11T08:32:24.881Z,-84
2016-10-11T08:33:24.926Z,-84
2016-10-11T08:34:24.841Z,-85
2016-10-11T08:35:24.686Z,-86
2016-10-11T08:36:26.448Z,-84
2016-10-11T08:37:25.503Z,-85
2016-10-11T08:38:27.890Z,-85
2016-10-11T08:39:26.014Z,-85
2016-10-11T08:40:24.711Z,-85
2016-10-11T08:41:25.053Z,-85
2016-10-11T08:42:24.676Z,-85
2016-10-11T08:43:24.856Z,-86
2016-10-11T08:44:24.670Z,-85
2016-10-11T08:45:24.817Z,-85
2016-10-11T08:46:25.089Z,-85
2016-10-11T08:47:24.949Z,-84
2016-10-11T08:48:24.856Z,-84
2016-10-11T08:49:24.739Z,-85
2016-10-11T08:50:24.874Z,-85
2016-10-11T08:51:24.883Z,-85
2016-10-11T08:52:24.858Z,-84
2016-10-11T08:53:24.830Z,-85
2016-10-11T08:54:24.824Z,-86
2016-10-11T08:55:24.905Z,-85
2016-10-11T08:56:24.883Z,-86
2016-10-11T08:57:24.869Z,-85
2016-10-11T08:58:25.048Z,-86
2016-10-11T08:59:24.888Z,-85
2016-10-11T09:00:25.050Z,-85
2016-10-11T09:01:24.797Z,-86
2016-10-11T09:02:25.009Z,-84
2016-10-11T09:03:24.874Z,-85
2016-10-11T09:04:24.909Z,-86
2016-10-11T09:05:24.856Z,-85
2016-10-11T09:06:24.810Z,-85
2016-10-11T09:07:24.881Z,-85
2016-10-11T09:08:24.937Z,-85
2016-10-11T09:09:24.914Z,-85
2016-10-11T09:10:24.979Z,-85
2016-10-11T09:11:25.527Z,-84
2016-10-11T09:12:24.846Z,-86
2016-10-11T09:13:24.776Z,-86
2016-10-11T09:14:24.894Z,-85
2016-10-11T09:15:24.870Z,-86
2016-10-11T09:16:24.929Z,-86
2016-10-11T09:17:24.862Z,-87
2016-10-11T09:18:25.006Z,-86
2016-10-11T09:19:24.739Z,-86
2016-10-11T09:20:24.890Z,-86
2016-10-11T09:21:24.960Z,-86
2016-10-11T09:22:24.792Z,-87
2016-10-11T09:23:24.867Z,-87
2016-10-11T09:24:24.761Z,-87
2016-10-11T09:25:24.994Z,-86
2016-10-11T09:26:24.963Z,-87
2016-10-11T09:27:25.054Z,-84
2016-10-11T09:28:25.005Z,-85
2016-10-11T09:29:24.820Z,-85
2016-10-11T09:30:24.955Z,-85
2016-10-11T09:31:24.897Z,-85
2016-10-11T09:32:24.996Z,-85
2016-10-11T09:33:24.863Z,-85
2016-10-11T09:34:25.289Z,-84
2016-10-11T09:35:24.934Z,-84
2016-10-11T09:36:24.873Z,-84
2016-10-11T09:37:25.046Z,-83
2016-10-11T09:38:25.067Z,-84
2016-10-11T09:39:25.147Z,-84
2016-10-11T09:40:25.055Z,-84
2016-10-11T09:41:25.027Z,-83
2016-10-11T09:42:25.162Z,-84
2016-10-11T09:43:24.965Z,-83
2016-10-11T09:44:24.994Z,-83
2016-10-11T09:45:25.060Z,-83
2016-10-11T09:46:25.020Z,-84
2016-10-11T09:47:24.926Z,-84
2016-10-11T09:48:25.079Z,-84
2016-10-11T09:49:24.972Z,-84
2016-10-11T09:50:25.209Z,-83
2016-10-11T09:51:25.136Z,-84
2016-10-11T09:52:24.918Z,-85
2016-10-11T09:53:24.917Z,-84
2016-10-11T09:54:25.252Z,-84
2016-10-11T09:55:25.363Z,-84
2016-10-11T09:56:25.431Z,-85
2016-10-11T09:57:25.023Z,-84
2016-10-11T09:58:28.491Z,-85
2016-10-11T09:59:24.966Z,-86
2016-10-11T10:00:25.384Z,-85
2016-10-11T10:01:25.679Z,-86
2016-10-11T10:02:25.558Z,-86
2016-10-11T10:03:25.030Z,-87
2016-10-11T10:04:25.093Z,-86
2016-10-11T10:05:25.045Z,-86
2016-10-11T10:06:25.003Z,-87
2016-10-11T10:07:25.004Z,-87
2016-10-11T10:08:25.399Z,-87
2016-10-11T10:09:25.064Z,-86
2016-10-11T10:10:25.071Z,-86
2016-10-11T10:11:25.069Z,-87
2016-10-11T10:12:25.075Z,-87
2016-10-11T10:13:24.951Z,-87
2016-10-11T10:14:25.015Z,-86
2016-10-11T10:15:25.068Z,-86
2016-10-11T10:16:25.135Z,-86
2016-10-11T10:17:25.570Z,-86
2016-10-11T10:18:25.025Z,-86
2016-10-11T10:19:25.096Z,-87
2016-10-11T10:20:25.009Z,-87
2016-10-11T10:21:25.141Z,-87
2016-10-11T10:22:25.264Z,-87
2016-10-11T10:23:25.194Z,-87
2016-10-11T10:24:25.662Z,-88
2016-10-11T10:25:25.144Z,-88
2016-10-11T10:26:25.010Z,-87
2016-10-11T10:27:25.000Z,-87
2016-10-11T10:28:25.201Z,-87
2016-10-11T10:29:25.147Z,-87
2016-10-11T10:30:25.143Z,-87
2016-10-11T10:31:25.212Z,-87
2016-10-11T10:32:25.150Z,-87
2016-10-11T10:33:25.270Z,-88
2016-10-11T10:34:25.094Z,-87
2016-10-11T10:35:26.134Z,-87
2016-10-11T10:36:25.199Z,-86
2016-10-11T10:37:25.101Z,-86
2016-10-11T10:38:25.547Z,-86
2016-10-11T10:39:25.097Z,-86
2016-10-11T10:40:25.103Z,-86
2016-10-11T10:41:25.125Z,-87
2016-10-11T10:42:25.098Z,-86
2016-10-11T10:43:25.121Z,-86
2016-10-11T10:44:25.139Z,-86
2016-10-11T10:45:25.042Z,-87
2016-10-11T10:46:25.168Z,-86
2016-10-11T10:47:25.185Z,-86
2016-10-11T10:48:25.104Z,-87
2016-10-11T10:49:25.041Z,-87
2016-10-11T10:50:25.712Z,-87
2016-10-11T10:51:25.076Z,-87
2016-10-11T10:52:25.168Z,-88
2016-10-11T10:53:25.102Z,-87
2016-10-11T10:54:25.280Z,-88
2016-10-11T10:55:25.174Z,-87
2016-10-11T10:56:25.094Z,-87
2016-10-11T10:57:25.068Z,-87
2016-10-11T10:58:25.149Z,-87
2016-10-11T10:59:25.195Z,-87
2016-10-11T11:00:25.435Z,-87
2016-10-11T11:01:25.216Z,-87
2016-10-11T11:02:25.159Z,-86
2016-10-11T11:03:25.223Z,-87
2016-10-11T11:04:25.184Z,-86
2016-10-11T11:05:25.377Z,-86
2016-10-11T11:06:25.201Z,-87
2016-10-11T11:07:25.168Z,-87
2016-10-11T11:08:25.215Z,-87
2016-10-11T11:09:25.237Z,-88
2016-10-11T11:10:25.292Z,-87
2016-10-11T11:11:25.155Z,-87
2016-10-11T11:12:25.319Z,-87
2016-10-11T11:13:25.130Z,-87
2016-10-11T11:14:25.207Z,-87
2016-10-11T11:15:25.308Z,-87
2016-10-11T11:16:25.192Z,-87
2016-10-11T11:17:25.226Z,-87
2016-10-11T11:18:25.271Z,-88
2016-10-11T11:19:25.182Z,-87
2016-10-11T11:20:25.206Z,-87
2016-10-11T11:21:25.250Z,-88
2016-10-11T11:22:25.201Z,-87
2016-10-11T11:23:25.222Z,-88
2016-10-11T11:24:25.159Z,-88
2016-10-11T11:25:25.257Z,-87
2016-10-11T11:26:25.391Z,-88
2016-10-11T11:27:25.229Z,-87
2016-10-11T11:28:25.326Z,-88
2016-10-11T11:29:25.294Z,-87
2016-10-11T11:30:25.157Z,-88
2016-10-11T11:31:25.229Z,-87
2016-10-11T11:32:25.399Z,-88
2016-10-11T11:33:25.177Z,-88
2016-10-11T11:34:25.167Z,-88
2016-10-11T11:35:25.258Z,-87
2016-10-11T11:36:25.263Z,-87
2016-10-11T11:37:25.256Z,-87
2016-10-11T11:38:25.561Z,-87
2016-10-11T11:39:25.198Z,-87
2016-10-11T11:40:25.271Z,-88
2016-10-11T11:41:25.170Z,-87
2016-10-11T11:42:25.438Z,-88
2016-10-11T11:43:25.296Z,-88
2016-10-11T11:44:25.319Z,-89
2016-10-11T11:45:25.371Z,-88
2016-10-11T11:46:25.327Z,-87
2016-10-11T11:47:25.236Z,-87
2016-10-11T11:48:25.392Z,-87
2016-10-11T11:49:25.322Z,-93
2016-10-11T11:50:25.399Z,-95
2016-10-11T11:51:25.642Z,-94
2016-10-11T11:52:25.548Z,-96
2016-10-11T11:53:25.956Z,-95
2016-10-11T11:54:26.374Z,-94
2016-10-11T11:55:25.371Z,-92
2016-10-11T11:56:25.413Z,-93
2016-10-11T11:57:25.324Z,-94
2016-10-11T11:58:25.635Z,-93
2016-10-11T11:59:25.231Z,-88
2016-10-11T12:00:25.301Z,-89
2016-10-11T12:01:25.381Z,-94
2016-10-11T12:02:25.422Z,-95
2016-10-11T12:03:25.339Z,-96
2016-10-11T12:04:25.467Z,-96
2016-10-11T12:05:26.565Z,-96
2016-10-11T12:06:25.835Z,-96
2016-10-11T12:07:25.503Z,-85
2016-10-11T12:08:26.032Z,-94
2016-10-11T12:09:26.138Z,-96
2016-10-11T12:10:25.409Z,-95
2016-10-11T12:11:25.454Z,-85
2016-10-11T12:12:25.723Z,-86
2016-10-11T12:13:25.526Z,-86
2016-10-11T12:14:25.467Z,-86
2016-10-11T12:15:25.392Z,-86
2016-10-11T12:16:25.479Z,-86
2016-10-11T12:17:26.091Z,-86
2016-10-11T12:18:25.465Z,-87
2016-10-11T12:19:25.404Z,-86
2016-10-11T12:20:25.420Z,-86
2016-10-11T12:21:25.378Z,-87
2016-10-11T12:22:25.473Z,-88
2016-10-11T12:23:25.437Z,-87
2016-10-11T12:24:25.438Z,-86
2016-10-11T12:25:25.575Z,-86
2016-10-11T12:26:25.398Z,-86
2016-10-11T12:27:25.377Z,-86
2016-10-11T12:28:25.557Z,-87
2016-10-11T12:29:25.314Z,-86
2016-10-11T12:30:25.509Z,-86
2016-10-11T12:31:25.511Z,-87
2016-10-11T12:32:25.514Z,-87
2016-10-11T12:33:25.366Z,-87
2016-10-11T12:34:25.415Z,-86
2016-10-11T12:35:26.303Z,-86
2016-10-11T12:36:25.733Z,-86
2016-10-11T12:37:25.389Z,-86
2016-10-11T12:38:25.530Z,-87
2016-10-11T12:39:25.422Z,-95
2016-10-11T12:40:25.624Z,-96
2016-10-11T12:41:25.702Z,-95
2016-10-11T12:42:25.558Z,-96
2016-10-11T12:43:26.172Z,-95
2016-10-11T12:44:25.490Z,-95
2016-10-11T12:45:25.549Z,-95
2016-10-11T12:46:25.514Z,-93
2016-10-11T12:47:25.430Z,-95
2016-10-11T12:48:25.442Z,-92
2016-10-11T12:49:25.484Z,-91
2016-10-11T12:50:25.431Z,-93
2016-10-11T12:51:25.501Z,-92
2016-10-11T12:52:26.027Z,-94
2016-10-11T12:53:26.815Z,-93
2016-10-11T12:54:25.431Z,-93
2016-10-11T12:55:25.545Z,-92
2016-10-11T12:56:25.619Z,-92
2016-10-11T12:57:25.867Z,-92
2016-10-11T12:58:25.451Z,-92
2016-10-11T12:59:25.632Z,-89
2016-10-11T13:00:25.525Z,-90
2016-10-11T13:01:25.562Z,-92
2016-10-11T13:02:25.807Z,-91
2016-10-11T13:03:25.743Z,-91
2016-10-11T13:04:28.625Z,-91
2016-10-11T13:05:25.651Z,-92
2016-10-11T13:06:25.609Z,-94
2016-10-11T13:07:25.675Z,-96
2016-10-11T13:08:26.324Z,-93
2016-10-11T13:09:27.521Z,-94
2016-10-11T13:10:25.704Z,-92
2016-10-11T13:11:26.861Z,-93
2016-10-11T13:12:36.908Z,-96
2016-10-11T13:13:34.431Z,-96
2016-10-11T13:14:27.273Z,-95
2016-10-11T13:15:27.212Z,-95
2016-10-11T13:16:25.796Z,-96
2016-10-11T13:17:28.946Z,-93
2016-10-11T13:18:25.491Z,-94
2016-10-11T13:19:25.633Z,-94
2016-10-11T13:20:25.692Z,-95
2016-10-11T13:21:26.404Z,-96
2016-10-11T13:22:26.472Z,-96
2016-10-11T13:23:25.512Z,-94
2016-10-11T13:24:25.595Z,-93
2016-10-11T13:25:26.489Z,-85
2016-10-11T13:26:26.331Z,-86
2016-10-11T13:27:25.666Z,-85
2016-10-11T13:28:25.981Z,-86
2016-10-11T13:29:25.918Z,-85
2016-10-11T13:30:25.476Z,-86
2016-10-11T13:31:25.588Z,-85
2016-10-11T13:32:25.564Z,-86
2016-10-11T13:33:25.756Z,-86
2016-10-11T13:34:35.951Z,-85
2016-10-11T13:35:28.355Z,-86
2016-10-11T13:36:25.576Z,-85
2016-10-11T13:37:25.583Z,-85
2016-10-11T13:38:25.668Z,-86
2016-10-11T13:39:25.553Z,-85
2016-10-11T13:40:25.643Z,-86
2016-10-11T13:41:25.609Z,-86
2016-10-11T13:42:25.674Z,-86
2016-10-11T13:43:25.662Z,-86
2016-10-11T13:44:25.544Z,-87
2016-10-11T13:45:25.642Z,-86
2016-10-11T13:46:25.612Z,-86